Back to Top

Language: 

My Weather Underground Personal Weather Station Historical Data with Graphs...

Delerius Weather Station Historical Data
Daily Summary for April 9, 2017 Units:  Both    English   Metric
« Previous Day
Next Day »
Daily Weekly Monthly Yearly Custom
  High: Low: Average:
Temperature: 72.7 °F /  22.6 °C 42.1 °F /  5.6 °C 56.3 °F /  13.5 °C
Dew Point: 54.1 °F /  12.3 °C 39.1 °F /  3.9 °C 46.3 °F /  7.9 °C
Humidity: 92 % 43 % 71 %
Wind Speed: 19.0 mph /  30.6 km/h - 7.3 mph /  11.7 km/h
Wind Gust: 32.0 mph /  51.5 km/h - -
Wind:- - WSW
Pressure: 30.11 in /  1019.5 hPa 29.97 in /  1014.8 hPa -
Precipitation: 0.00 in /  0 mm    
Historical Graphs
 
 
Tabular Data for April 9, 2017
Time Temperature Dew Point Pressure Wind Wind Speed Wind Gust Humidity Rainfall Rate (Hourly) solar Conditions
00:04 47.8 °F /  8.8 °C 41.6 °F /  5.3 °C 30.11 in /  1019.5 hPa SW 1.0 mph /  1.6 km/h 5.0 mph /  8 km/h 79 % 0.00 in /  0 mm 0 W/m2
00:09 47.7 °F /  8.7 °C 41.5 °F /  5.3 °C 30.11 in /  1019.5 hPa SW 1.0 mph /  1.6 km/h 5.0 mph /  8 km/h 79 % 0.00 in /  0 mm 0 W/m2
00:14 47.8 °F /  8.8 °C 42.0 °F /  5.6 °C 30.11 in /  1019.5 hPa Calm   4.0 mph /  6.4 km/h 80 % 0.00 in /  0 mm 0 W/m2
00:19 48.7 °F /  9.3 °C 42.5 °F /  5.8 °C 30.11 in /  1019.5 hPa Calm   5.0 mph /  8 km/h 79 % 0.00 in /  0 mm 0 W/m2
00:24 48.7 °F /  9.3 °C 41.8 °F /  5.4 °C 30.11 in /  1019.5 hPa Calm   5.0 mph /  8 km/h 77 % 0.00 in /  0 mm 0 W/m2
00:29 48.6 °F /  9.2 °C 42.0 °F /  5.6 °C 30.11 in /  1019.5 hPa Calm   4.0 mph /  6.4 km/h 78 % 0.00 in /  0 mm 0 W/m2
00:34 48.2 °F /  9 °C 41.7 °F /  5.4 °C 30.11 in /  1019.5 hPa Calm   4.0 mph /  6.4 km/h 78 % 0.00 in /  0 mm 0 W/m2
00:39 48.0 °F /  8.9 °C 41.8 °F /  5.4 °C 30.11 in /  1019.5 hPa Calm   4.0 mph /  6.4 km/h 79 % 0.00 in /  0 mm 0 W/m2
00:45 48.2 °F /  9 °C 42.3 °F /  5.7 °C 30.11 in /  1019.5 hPa Calm   5.0 mph /  8 km/h 80 % 0.00 in /  0 mm 0 W/m2
00:50 48.2 °F /  9 °C 42.0 °F /  5.6 °C 30.11 in /  1019.5 hPa Calm   5.0 mph /  8 km/h 79 % 0.00 in /  0 mm 0 W/m2
00:55 47.8 °F /  8.8 °C 41.3 °F /  5.2 °C 30.11 in /  1019.5 hPa Calm   5.0 mph /  8 km/h 78 % 0.00 in /  0 mm 0 W/m2
01:00 47.5 °F /  8.6 °C 41.3 °F /  5.2 °C 30.11 in /  1019.5 hPa SSW 1.0 mph /  1.6 km/h 5.0 mph /  8 km/h 79 % 0.00 in /  0 mm 0 W/m2
01:05 47.1 °F /  8.4 °C 41.3 °F /  5.2 °C 30.11 in /  1019.5 hPa Calm   5.0 mph /  8 km/h 80 % 0.00 in /  0 mm 0 W/m2
01:10 46.9 °F /  8.3 °C 41.4 °F /  5.2 °C 30.11 in /  1019.5 hPa Calm   2.0 mph /  3.2 km/h 81 % 0.00 in /  0 mm 0 W/m2
01:15 46.9 °F /  8.3 °C 41.7 °F /  5.4 °C 30.11 in /  1019.5 hPa Calm   3.0 mph /  4.8 km/h 82 % 0.00 in /  0 mm 0 W/m2
01:20 46.9 °F /  8.3 °C 41.7 °F /  5.4 °C 30.11 in /  1019.5 hPa South 1.0 mph /  1.6 km/h 6.0 mph /  9.7 km/h 82 % 0.00 in /  0 mm 0 W/m2
01:25 47.1 °F /  8.4 °C 41.9 °F /  5.5 °C 30.11 in /  1019.5 hPa SSW 1.0 mph /  1.6 km/h 6.0 mph /  9.7 km/h 82 % 0.00 in /  0 mm 0 W/m2
01:30 47.5 °F /  8.6 °C 42.6 °F /  5.9 °C 30.11 in /  1019.5 hPa SSE 1.0 mph /  1.6 km/h 6.0 mph /  9.7 km/h 83 % 0.00 in /  0 mm 0 W/m2
01:35 47.8 °F /  8.8 °C 42.9 °F /  6.1 °C 30.11 in /  1019.5 hPa SSE 1.0 mph /  1.6 km/h 6.0 mph /  9.7 km/h 83 % 0.00 in /  0 mm 0 W/m2
01:40 48.6 °F /  9.2 °C 43.9 °F /  6.6 °C 30.10 in /  1019.2 hPa South 2.0 mph /  3.2 km/h 6.0 mph /  9.7 km/h 84 % 0.00 in /  0 mm 0 W/m2
01:45 48.9 °F /  9.4 °C 43.7 °F /  6.5 °C 30.10 in /  1019.2 hPa South 1.0 mph /  1.6 km/h 5.0 mph /  8 km/h 82 % 0.00 in /  0 mm 0 W/m2
01:50 49.1 °F /  9.5 °C 43.5 °F /  6.4 °C 30.10 in /  1019.2 hPa Calm   3.0 mph /  4.8 km/h 81 % 0.00 in /  0 mm 0 W/m2
01:55 48.9 °F /  9.4 °C 43.3 °F /  6.3 °C 30.10 in /  1019.2 hPa Calm   2.0 mph /  3.2 km/h 81 % 0.00 in /  0 mm 0 W/m2
02:00 49.1 °F /  9.5 °C 43.8 °F /  6.6 °C 30.10 in /  1019.2 hPa Calm   2.0 mph /  3.2 km/h 82 % 0.00 in /  0 mm 0 W/m2
02:05 49.3 °F /  9.6 °C 44.0 °F /  6.7 °C 30.10 in /  1019.2 hPa Calm   1.0 mph /  1.6 km/h 82 % 0.00 in /  0 mm 0 W/m2
02:10 49.5 °F /  9.7 °C 44.2 °F /  6.8 °C 30.10 in /  1019.2 hPa Calm   3.0 mph /  4.8 km/h 82 % 0.00 in /  0 mm 0 W/m2
02:15 49.6 °F /  9.8 °C 44.4 °F /  6.9 °C 30.10 in /  1019.2 hPa SE 1.0 mph /  1.6 km/h 4.0 mph /  6.4 km/h 82 % 0.00 in /  0 mm 0 W/m2
02:20 50.0 °F /  10 °C 44.4 °F /  6.9 °C 30.10 in /  1019.2 hPa SE 1.0 mph /  1.6 km/h 4.0 mph /  6.4 km/h 81 % 0.00 in /  0 mm 0 W/m2
02:25 50.2 °F /  10.1 °C 44.6 °F /  7 °C 30.10 in /  1019.2 hPa Calm   3.0 mph /  4.8 km/h 81 % 0.00 in /  0 mm 0 W/m2
02:30 50.4 °F /  10.2 °C 44.4 °F /  6.9 °C 30.10 in /  1019.2 hPa Calm   2.0 mph /  3.2 km/h 80 % 0.00 in /  0 mm 0 W/m2
02:35 50.2 °F /  10.1 °C 44.2 °F /  6.8 °C 30.10 in /  1019.2 hPa Calm   2.0 mph /  3.2 km/h 80 % 0.00 in /  0 mm 0 W/m2
02:40 50.0 °F /  10 °C 44.4 °F /  6.9 °C 30.10 in /  1019.2 hPa Calm   3.0 mph /  4.8 km/h 81 % 0.00 in /  0 mm 0 W/m2
02:45 49.8 °F /  9.9 °C 44.2 °F /  6.8 °C 30.10 in /  1019.2 hPa SE 1.0 mph /  1.6 km/h 3.0 mph /  4.8 km/h 81 % 0.00 in /  0 mm 0 W/m2
02:50 49.8 °F /  9.9 °C 44.5 °F /  6.9 °C 30.10 in /  1019.2 hPa SE 1.0 mph /  1.6 km/h 4.0 mph /  6.4 km/h 82 % 0.00 in /  0 mm 0 W/m2
02:55 49.6 °F /  9.8 °C 44.4 °F /  6.9 °C 30.10 in /  1019.2 hPa SE 1.0 mph /  1.6 km/h 4.0 mph /  6.4 km/h 82 % 0.00 in /  0 mm 0 W/m2
03:00 49.5 °F /  9.7 °C 43.9 °F /  6.6 °C 30.09 in /  1018.8 hPa SE 1.0 mph /  1.6 km/h 4.0 mph /  6.4 km/h 81 % 0.00 in /  0 mm 0 W/m2
03:05 48.7 °F /  9.3 °C 42.5 °F /  5.8 °C 30.10 in /  1019.2 hPa Calm   3.0 mph /  4.8 km/h 79 % 0.00 in /  0 mm 0 W/m2
03:10 47.8 °F /  8.8 °C 42.0 °F /  5.6 °C 30.10 in /  1019.2 hPa Calm   2.0 mph /  3.2 km/h 80 % 0.00 in /  0 mm 0 W/m2
03:15 47.1 °F /  8.4 °C 41.6 °F /  5.3 °C 30.10 in /  1019.2 hPa Calm   4.0 mph /  6.4 km/h 81 % 0.00 in /  0 mm 0 W/m2
03:17 46.9 °F /  8.3 °C 41.4 °F /  5.2 °C 30.10 in /  1019.2 hPa Calm   4.0 mph /  6.4 km/h 81 % 0.00 in /  0 mm 0 W/m2
03:22 46.6 °F /  8.1 °C 41.7 °F /  5.4 °C 30.09 in /  1018.8 hPa Calm   1.0 mph /  1.6 km/h 83 % 0.00 in /  0 mm 0 W/m2
03:27 46.2 °F /  7.9 °C 41.7 °F /  5.4 °C 30.09 in /  1018.8 hPa Calm   1.0 mph /  1.6 km/h 84 % 0.00 in /  0 mm 0 W/m2
03:32 46.0 °F /  7.8 °C 41.8 °F /  5.4 °C 30.10 in /  1019.2 hPa Calm     85 % 0.00 in /  0 mm 0 W/m2
03:37 45.9 °F /  7.7 °C 41.9 °F /  5.5 °C 30.10 in /  1019.2 hPa Calm   1.0 mph /  1.6 km/h 86 % 0.00 in /  0 mm 0 W/m2
03:42 45.9 °F /  7.7 °C 41.9 °F /  5.5 °C 30.09 in /  1018.8 hPa Calm   1.0 mph /  1.6 km/h 86 % 0.00 in /  0 mm 0 W/m2
03:47 45.5 °F /  7.5 °C 41.3 °F /  5.2 °C 30.09 in /  1018.8 hPa Calm   2.0 mph /  3.2 km/h 85 % 0.00 in /  0 mm 0 W/m2
03:52 45.1 °F /  7.3 °C 41.2 °F /  5.1 °C 30.09 in /  1018.8 hPa Calm   2.0 mph /  3.2 km/h 86 % 0.00 in /  0 mm 0 W/m2
03:57 45.0 °F /  7.2 °C 41.0 °F /  5 °C 30.09 in /  1018.8 hPa Calm   1.0 mph /  1.6 km/h 86 % 0.00 in /  0 mm 0 W/m2
04:02 45.0 °F /  7.2 °C 41.3 °F /  5.2 °C 30.09 in /  1018.8 hPa Calm   1.0 mph /  1.6 km/h 87 % 0.00 in /  0 mm 0 W/m2
04:07 45.1 °F /  7.3 °C 41.8 °F /  5.4 °C 30.09 in /  1018.8 hPa Calm   1.0 mph /  1.6 km/h 88 % 0.00 in /  0 mm 0 W/m2
04:12 45.1 °F /  7.3 °C 41.8 °F /  5.4 °C 30.09 in /  1018.8 hPa Calm   1.0 mph /  1.6 km/h 88 % 0.00 in /  0 mm 0 W/m2
04:17 45.1 °F /  7.3 °C 41.8 °F /  5.4 °C 30.09 in /  1018.8 hPa Calm   1.0 mph /  1.6 km/h 88 % 0.00 in /  0 mm 0 W/m2
04:22 45.0 °F /  7.2 °C 41.3 °F /  5.2 °C 30.08 in /  1018.5 hPa Calm   1.0 mph /  1.6 km/h 87 % 0.00 in /  0 mm 0 W/m2
04:27 45.1 °F /  7.3 °C 42.1 °F /  5.6 °C 30.08 in /  1018.5 hPa Calm   1.0 mph /  1.6 km/h 89 % 0.00 in /  0 mm 0 W/m2
04:32 45.0 °F /  7.2 °C 41.6 °F /  5.3 °C 30.09 in /  1018.8 hPa Calm   1.0 mph /  1.6 km/h 88 % 0.00 in /  0 mm 0 W/m2
04:38 45.1 °F /  7.3 °C 42.1 °F /  5.6 °C 30.08 in /  1018.5 hPa Calm     89 % 0.00 in /  0 mm 0 W/m2
04:43 44.8 °F /  7.1 °C 41.4 °F /  5.2 °C 30.08 in /  1018.5 hPa Calm     88 % 0.00 in /  0 mm 0 W/m2
04:48 44.2 °F /  6.8 °C 40.3 °F /  4.6 °C 30.08 in /  1018.5 hPa Calm   1.0 mph /  1.6 km/h 86 % 0.00 in /  0 mm 0 W/m2
04:53 43.9 °F /  6.6 °C 40.0 °F /  4.4 °C 30.08 in /  1018.5 hPa Calm   1.0 mph /  1.6 km/h 86 % 0.00 in /  0 mm 0 W/m2
04:58 43.7 °F /  6.5 °C 40.1 °F /  4.5 °C 30.08 in /  1018.5 hPa Calm   2.0 mph /  3.2 km/h 87 % 0.00 in /  0 mm 0 W/m2
05:03 43.5 °F /  6.4 °C 40.2 °F /  4.6 °C 30.08 in /  1018.5 hPa Calm   2.0 mph /  3.2 km/h 88 % 0.00 in /  0 mm 0 W/m2
05:08 43.5 °F /  6.4 °C 40.2 °F /  4.6 °C 30.08 in /  1018.5 hPa Calm   2.0 mph /  3.2 km/h 88 % 0.00 in /  0 mm 0 W/m2
05:13 43.3 °F /  6.3 °C 40.0 °F /  4.4 °C 30.08 in /  1018.5 hPa Calm   2.0 mph /  3.2 km/h 88 % 0.00 in /  0 mm 0 W/m2
05:18 43.2 °F /  6.2 °C 39.8 °F /  4.3 °C 30.08 in /  1018.5 hPa Calm     88 % 0.00 in /  0 mm 0 W/m2
05:23 43.2 °F /  6.2 °C 40.1 °F /  4.5 °C 30.08 in /  1018.5 hPa Calm     89 % 0.00 in /  0 mm 0 W/m2
05:28 43.0 °F /  6.1 °C 40.0 °F /  4.4 °C 30.08 in /  1018.5 hPa Calm   3.0 mph /  4.8 km/h 89 % 0.00 in /  0 mm 0 W/m2
05:33 43.0 °F /  6.1 °C 40.0 °F /  4.4 °C 30.08 in /  1018.5 hPa Calm   5.0 mph /  8 km/h 89 % 0.00 in /  0 mm 0 W/m2
05:38 42.8 °F /  6 °C 39.8 °F /  4.3 °C 30.08 in /  1018.5 hPa Calm   5.0 mph /  8 km/h 89 % 0.00 in /  0 mm 0 W/m2
05:43 42.6 °F /  5.9 °C 39.9 °F /  4.4 °C 30.08 in /  1018.5 hPa Calm   2.0 mph /  3.2 km/h 90 % 0.00 in /  0 mm 0 W/m2
05:48 43.3 °F /  6.3 °C 40.9 °F /  4.9 °C 30.08 in /  1018.5 hPa Calm   2.0 mph /  3.2 km/h 91 % 0.00 in /  0 mm 0 W/m2
05:53 43.5 °F /  6.4 °C 40.8 °F /  4.9 °C 30.08 in /  1018.5 hPa Calm   2.0 mph /  3.2 km/h 90 % 0.00 in /  0 mm 0 W/m2
05:58 43.3 °F /  6.3 °C 40.3 °F /  4.6 °C 30.08 in /  1018.5 hPa Calm     89 % 0.00 in /  0 mm 0 W/m2
06:03 43.0 °F /  6.1 °C 40.0 °F /  4.4 °C 30.08 in /  1018.5 hPa Calm   2.0 mph /  3.2 km/h 89 % 0.00 in /  0 mm 0 W/m2
06:08 43.0 °F /  6.1 °C 40.2 °F /  4.6 °C 30.08 in /  1018.5 hPa Calm   2.0 mph /  3.2 km/h 90 % 0.00 in /  0 mm 0 W/m2
06:13 43.0 °F /  6.1 °C 40.0 °F /  4.4 °C 30.08 in /  1018.5 hPa Calm   2.0 mph /  3.2 km/h 89 % 0.00 in /  0 mm 0 W/m2
06:18 42.6 °F /  5.9 °C 39.6 °F /  4.2 °C 30.08 in /  1018.5 hPa Calm   5.0 mph /  8 km/h 89 % 0.00 in /  0 mm 5 W/m2
06:23 42.4 °F /  5.8 °C 39.4 °F /  4.1 °C 30.08 in /  1018.5 hPa Calm   5.0 mph /  8 km/h 89 % 0.00 in /  0 mm 5 W/m2
06:28 42.3 °F /  5.7 °C 39.2 °F /  4 °C 30.08 in /  1018.5 hPa Calm   2.0 mph /  3.2 km/h 89 % 0.00 in /  0 mm 7 W/m2
06:29 42.1 °F /  5.6 °C 39.1 °F /  3.9 °C 30.08 in /  1018.5 hPa Calm   2.0 mph /  3.2 km/h 89 % 0.00 in /  0 mm 9 W/m2
06:34 42.3 °F /  5.7 °C 39.8 °F /  4.3 °C 30.08 in /  1018.5 hPa Calm   2.0 mph /  3.2 km/h 91 % 0.00 in /  0 mm 11 W/m2
06:39 42.3 °F /  5.7 °C 39.5 °F /  4.2 °C 30.08 in /  1018.5 hPa Calm   2.0 mph /  3.2 km/h 90 % 0.00 in /  0 mm 14 W/m2
06:45 42.3 °F /  5.7 °C 39.5 °F /  4.2 °C 30.08 in /  1018.5 hPa Calm   1.0 mph /  1.6 km/h 90 % 0.00 in /  0 mm 16 W/m2
06:50 42.6 °F /  5.9 °C 40.5 °F /  4.7 °C 30.08 in /  1018.5 hPa North 1.0 mph /  1.6 km/h 5.0 mph /  8 km/h 92 % 0.00 in /  0 mm 18 W/m2
06:55 43.3 °F /  6.3 °C 41.2 °F /  5.1 °C 30.08 in /  1018.5 hPa ENE 2.0 mph /  3.2 km/h 5.0 mph /  8 km/h 92 % 0.00 in /  0 mm 21 W/m2
07:00 43.9 °F /  6.6 °C 41.7 °F /  5.4 °C 30.08 in /  1018.5 hPa East 2.0 mph /  3.2 km/h 5.0 mph /  8 km/h 92 % 0.00 in /  0 mm 32 W/m2
07:05 44.2 °F /  6.8 °C 41.8 °F /  5.4 °C 30.08 in /  1018.5 hPa East 1.0 mph /  1.6 km/h 5.0 mph /  8 km/h 91 % 0.00 in /  0 mm 39 W/m2
07:10 44.8 °F /  7.1 °C 42.3 °F /  5.7 °C 30.08 in /  1018.5 hPa East 2.0 mph /  3.2 km/h 5.0 mph /  8 km/h 91 % 0.00 in /  0 mm 37 W/m2
07:15 45.1 °F /  7.3 °C 42.7 °F /  5.9 °C 30.08 in /  1018.5 hPa East 1.0 mph /  1.6 km/h 5.0 mph /  8 km/h 91 % 0.00 in /  0 mm 44 W/m2
07:20 45.5 °F /  7.5 °C 42.7 °F /  5.9 °C 30.08 in /  1018.5 hPa Calm   2.0 mph /  3.2 km/h 90 % 0.00 in /  0 mm 32 W/m2
07:25 45.1 °F /  7.3 °C 41.5 °F /  5.3 °C 30.08 in /  1018.5 hPa Calm     87 % 0.00 in /  0 mm 33 W/m2
07:30 44.8 °F /  7.1 °C 41.4 °F /  5.2 °C 30.08 in /  1018.5 hPa Calm   2.0 mph /  3.2 km/h 88 % 0.00 in /  0 mm 35 W/m2
07:35 45.0 °F /  7.2 °C 41.6 °F /  5.3 °C 30.08 in /  1018.5 hPa Calm   4.0 mph /  6.4 km/h 88 % 0.00 in /  0 mm 37 W/m2
07:40 45.0 °F /  7.2 °C 41.6 °F /  5.3 °C 30.08 in /  1018.5 hPa East 1.0 mph /  1.6 km/h 4.0 mph /  6.4 km/h 88 % 0.00 in /  0 mm 100 W/m2
07:45 45.1 °F /  7.3 °C 42.1 °F /  5.6 °C 30.08 in /  1018.5 hPa East 1.0 mph /  1.6 km/h 4.0 mph /  6.4 km/h 89 % 0.00 in /  0 mm 109 W/m2
07:50 45.9 °F /  7.7 °C 43.1 °F /  6.2 °C 30.08 in /  1018.5 hPa Calm   2.0 mph /  3.2 km/h 90 % 0.00 in /  0 mm 42 W/m2
07:55 46.9 °F /  8.3 °C 44.2 °F /  6.8 °C 30.08 in /  1018.5 hPa Calm   4.0 mph /  6.4 km/h 90 % 0.00 in /  0 mm 72 W/m2
08:00 47.8 °F /  8.8 °C 44.8 °F /  7.1 °C 30.08 in /  1018.5 hPa Calm   4.0 mph /  6.4 km/h 89 % 0.00 in /  0 mm 192 W/m2
08:05 48.7 °F /  9.3 °C 45.3 °F /  7.4 °C 30.08 in /  1018.5 hPa Calm   2.0 mph /  3.2 km/h 88 % 0.00 in /  0 mm 206 W/m2
08:10 50.0 °F /  10 °C 46.3 °F /  7.9 °C 30.08 in /  1018.5 hPa Calm   2.0 mph /  3.2 km/h 87 % 0.00 in /  0 mm 220 W/m2
08:15 51.3 °F /  10.7 °C 46.9 °F /  8.3 °C 30.08 in /  1018.5 hPa Calm   1.0 mph /  1.6 km/h 85 % 0.00 in /  0 mm 237 W/m2
08:20 52.7 °F /  11.5 °C 47.4 °F /  8.6 °C 30.08 in /  1018.5 hPa Calm   4.0 mph /  6.4 km/h 82 % 0.00 in /  0 mm 250 W/m2
08:25 53.8 °F /  12.1 °C 47.4 °F /  8.6 °C 30.08 in /  1018.5 hPa Calm   4.0 mph /  6.4 km/h 79 % 0.00 in /  0 mm 265 W/m2
08:30 54.7 °F /  12.6 °C 47.3 °F /  8.5 °C 30.07 in /  1018.2 hPa Calm   3.0 mph /  4.8 km/h 76 % 0.00 in /  0 mm 278 W/m2
08:35 55.6 °F /  13.1 °C 48.1 °F /  8.9 °C 30.07 in /  1018.2 hPa SSW 1.0 mph /  1.6 km/h 4.0 mph /  6.4 km/h 76 % 0.00 in /  0 mm 294 W/m2
08:40 56.3 °F /  13.5 °C 47.8 °F /  8.8 °C 30.08 in /  1018.5 hPa SSW 1.0 mph /  1.6 km/h 4.0 mph /  6.4 km/h 73 % 0.00 in /  0 mm 304 W/m2
08:45 57.0 °F /  13.9 °C 48.4 °F /  9.1 °C 30.07 in /  1018.2 hPa SSW 1.0 mph /  1.6 km/h 4.0 mph /  6.4 km/h 73 % 0.00 in /  0 mm 318 W/m2
08:50 57.9 °F /  14.4 °C 48.6 °F /  9.2 °C 30.07 in /  1018.2 hPa Calm   2.0 mph /  3.2 km/h 71 % 0.00 in /  0 mm 329 W/m2
08:55 59.2 °F /  15.1 °C 49.0 °F /  9.4 °C 30.07 in /  1018.2 hPa Calm   1.0 mph /  1.6 km/h 69 % 0.00 in /  0 mm 348 W/m2
09:00 59.7 °F /  15.4 °C 48.7 °F /  9.3 °C 30.07 in /  1018.2 hPa Calm   1.0 mph /  1.6 km/h 67 % 0.00 in /  0 mm 360 W/m2
09:05 60.4 °F /  15.8 °C 49.0 °F /  9.4 °C 30.07 in /  1018.2 hPa SSW 1.0 mph /  1.6 km/h 4.0 mph /  6.4 km/h 66 % 0.00 in /  0 mm 374 W/m2
09:10 60.6 °F /  15.9 °C 48.8 °F /  9.3 °C 30.07 in /  1018.2 hPa SSW 2.0 mph /  3.2 km/h 5.0 mph /  8 km/h 65 % 0.00 in /  0 mm 385 W/m2
09:16 60.6 °F /  15.9 °C 49.2 °F /  9.6 °C 30.07 in /  1018.2 hPa SSW 3.0 mph /  4.8 km/h 6.0 mph /  9.7 km/h 66 % 0.00 in /  0 mm 401 W/m2
09:21 60.8 °F /  16 °C 49.4 °F /  9.7 °C 30.06 in /  1017.8 hPa SSW 4.0 mph /  6.4 km/h 7.0 mph /  11.3 km/h 66 % 0.00 in /  0 mm 418 W/m2
09:26 61.0 °F /  16.1 °C 49.1 °F /  9.5 °C 30.06 in /  1017.8 hPa SSW 5.0 mph /  8 km/h 11.0 mph /  17.7 km/h 65 % 0.00 in /  0 mm 432 W/m2
09:31 61.2 °F /  16.2 °C 49.3 °F /  9.6 °C 30.06 in /  1017.8 hPa South 5.0 mph /  8 km/h 11.0 mph /  17.7 km/h 65 % 0.00 in /  0 mm 439 W/m2
09:36 61.7 °F /  16.5 °C 49.4 °F /  9.7 °C 30.06 in /  1017.8 hPa South 4.0 mph /  6.4 km/h 10.0 mph /  16.1 km/h 64 % 0.00 in /  0 mm 457 W/m2
09:41 61.9 °F /  16.6 °C 49.1 °F /  9.5 °C 30.06 in /  1017.8 hPa SSE 4.0 mph /  6.4 km/h 8.0 mph /  12.9 km/h 63 % 0.00 in /  0 mm 466 W/m2
09:46 62.2 °F /  16.8 °C 49.5 °F /  9.7 °C 30.06 in /  1017.8 hPa South 4.0 mph /  6.4 km/h 9.0 mph /  14.5 km/h 63 % 0.00 in /  0 mm 476 W/m2
09:51 62.4 °F /  16.9 °C 49.7 °F /  9.8 °C 30.06 in /  1017.8 hPa South 4.0 mph /  6.4 km/h 9.0 mph /  14.5 km/h 63 % 0.00 in /  0 mm 487 W/m2
09:56 62.8 °F /  17.1 °C 49.6 °F /  9.8 °C 30.06 in /  1017.8 hPa South 5.0 mph /  8 km/h 11.0 mph /  17.7 km/h 62 % 0.00 in /  0 mm 501 W/m2
10:01 63.1 °F /  17.3 °C 49.9 °F /  9.9 °C 30.06 in /  1017.8 hPa South 6.0 mph /  9.7 km/h 12.0 mph /  19.3 km/h 62 % 0.00 in /  0 mm 519 W/m2
10:06 63.1 °F /  17.3 °C 49.9 °F /  9.9 °C 30.06 in /  1017.8 hPa South 7.0 mph /  11.3 km/h 15.0 mph /  24.1 km/h 62 % 0.00 in /  0 mm 531 W/m2
10:11 63.3 °F /  17.4 °C 50.1 °F /  10.1 °C 30.05 in /  1017.5 hPa SSW 8.0 mph /  12.9 km/h 15.0 mph /  24.1 km/h 62 % 0.00 in /  0 mm 538 W/m2
10:16 63.3 °F /  17.4 °C 50.1 °F /  10.1 °C 30.05 in /  1017.5 hPa SSW 7.0 mph /  11.3 km/h 12.0 mph /  19.3 km/h 62 % 0.00 in /  0 mm 550 W/m2
10:21 63.9 °F /  17.7 °C 50.6 °F /  10.3 °C 30.05 in /  1017.5 hPa SSW 7.0 mph /  11.3 km/h 12.0 mph /  19.3 km/h 62 % 0.00 in /  0 mm 564 W/m2
10:26 64.2 °F /  17.9 °C 50.5 °F /  10.3 °C 30.05 in /  1017.5 hPa SSW 7.0 mph /  11.3 km/h 14.0 mph /  22.5 km/h 61 % 0.00 in /  0 mm 577 W/m2
10:31 64.6 °F /  18.1 °C 50.8 °F /  10.4 °C 30.05 in /  1017.5 hPa SW 8.0 mph /  12.9 km/h 14.0 mph /  22.5 km/h 61 % 0.00 in /  0 mm 585 W/m2
10:36 64.9 °F /  18.3 °C 50.7 °F /  10.4 °C 30.05 in /  1017.5 hPa SSW 7.0 mph /  11.3 km/h 12.0 mph /  19.3 km/h 60 % 0.00 in /  0 mm 594 W/m2
10:41 64.9 °F /  18.3 °C 50.7 °F /  10.4 °C 30.05 in /  1017.5 hPa SSW 7.0 mph /  11.3 km/h 11.0 mph /  17.7 km/h 60 % 0.00 in /  0 mm 601 W/m2
10:46 65.3 °F /  18.5 °C 50.6 °F /  10.3 °C 30.04 in /  1017.2 hPa South 7.0 mph /  11.3 km/h 14.0 mph /  22.5 km/h 59 % 0.00 in /  0 mm 606 W/m2
10:51 65.7 °F /  18.7 °C 50.9 °F /  10.5 °C 30.04 in /  1017.2 hPa SSE 7.0 mph /  11.3 km/h 14.0 mph /  22.5 km/h 59 % 0.00 in /  0 mm 612 W/m2
10:56 65.8 °F /  18.8 °C 50.6 °F /  10.3 °C 30.04 in /  1017.2 hPa SSE 7.0 mph /  11.3 km/h 14.0 mph /  22.5 km/h 58 % 0.00 in /  0 mm 621 W/m2
11:01 66.0 °F /  18.9 °C 50.3 °F /  10.2 °C 30.04 in /  1017.2 hPa SSE 8.0 mph /  12.9 km/h 14.0 mph /  22.5 km/h 57 % 0.00 in /  0 mm 626 W/m2
11:06 66.0 °F /  18.9 °C 50.3 °F /  10.2 °C 30.04 in /  1017.2 hPa SSE 8.0 mph /  12.9 km/h 14.0 mph /  22.5 km/h 57 % 0.00 in /  0 mm 635 W/m2
11:11 66.4 °F /  19.1 °C 51.2 °F /  10.7 °C 30.04 in /  1017.2 hPa SSE 8.0 mph /  12.9 km/h 14.0 mph /  22.5 km/h 58 % 0.00 in /  0 mm 647 W/m2
11:16 66.7 °F /  19.3 °C 51.0 °F /  10.6 °C 30.03 in /  1016.8 hPa SSE 7.0 mph /  11.3 km/h 12.0 mph /  19.3 km/h 57 % 0.00 in /  0 mm 654 W/m2
11:21 67.3 °F /  19.6 °C 51.5 °F /  10.8 °C 30.03 in /  1016.8 hPa SSE 7.0 mph /  11.3 km/h 13.0 mph /  20.9 km/h 57 % 0.00 in /  0 mm 666 W/m2
11:26 67.8 °F /  19.9 °C 52.0 °F /  11.1 °C 30.04 in /  1017.2 hPa South 6.0 mph /  9.7 km/h 13.0 mph /  20.9 km/h 57 % 0.00 in /  0 mm 673 W/m2
11:31 68.2 °F /  20.1 °C 51.9 °F /  11.1 °C 30.03 in /  1016.8 hPa SSW 8.0 mph /  12.9 km/h 16.0 mph /  25.7 km/h 56 % 0.00 in /  0 mm 679 W/m2
11:36 68.4 °F /  20.2 °C 51.6 °F /  10.9 °C 30.03 in /  1016.8 hPa SSW 9.0 mph /  14.5 km/h 16.0 mph /  25.7 km/h 55 % 0.00 in /  0 mm 677 W/m2
11:41 68.5 °F /  20.3 °C 52.2 °F /  11.2 °C 30.03 in /  1016.8 hPa SSW 7.0 mph /  11.3 km/h 15.0 mph /  24.1 km/h 56 % 0.00 in /  0 mm 694 W/m2
11:42 68.7 °F /  20.4 °C 52.4 °F /  11.3 °C 30.03 in /  1016.8 hPa SSW 7.0 mph /  11.3 km/h 15.0 mph /  24.1 km/h 56 % 0.00 in /  0 mm 696 W/m2
11:47 69.3 °F /  20.7 °C 51.9 °F /  11.1 °C 30.02 in /  1016.5 hPa SW 7.0 mph /  11.3 km/h 14.0 mph /  22.5 km/h 54 % 0.00 in /  0 mm 703 W/m2
11:52 70.0 °F /  21.1 °C 53.1 °F /  11.7 °C 30.02 in /  1016.5 hPa WSW 8.0 mph /  12.9 km/h 14.0 mph /  22.5 km/h 55 % 0.00 in /  0 mm 707 W/m2
11:57 69.8 °F /  21 °C 52.4 °F /  11.3 °C 30.02 in /  1016.5 hPa SW 9.0 mph /  14.5 km/h 15.0 mph /  24.1 km/h 54 % 0.00 in /  0 mm 710 W/m2
12:02 69.4 °F /  20.8 °C 52.1 °F /  11.2 °C 30.02 in /  1016.5 hPa SSW 11.0 mph /  17.7 km/h 16.0 mph /  25.7 km/h 54 % 0.00 in /  0 mm 719 W/m2
12:07 69.6 °F /  20.9 °C 52.7 °F /  11.5 °C 30.02 in /  1016.5 hPa SSW 10.0 mph /  16.1 km/h 16.0 mph /  25.7 km/h 55 % 0.00 in /  0 mm 722 W/m2
12:12 69.6 °F /  20.9 °C 52.2 °F /  11.2 °C 30.01 in /  1016.1 hPa SSW 10.0 mph /  16.1 km/h 18.0 mph /  29 km/h 54 % 0.00 in /  0 mm 731 W/m2
12:17 70.2 °F /  21.2 °C 52.7 °F /  11.5 °C 30.01 in /  1016.1 hPa SW 11.0 mph /  17.7 km/h 20.0 mph /  32.2 km/h 54 % 0.00 in /  0 mm 733 W/m2
12:22 70.3 °F /  21.3 °C 52.4 °F /  11.3 °C 30.01 in /  1016.1 hPa SW 11.0 mph /  17.7 km/h 20.0 mph /  32.2 km/h 53 % 0.00 in /  0 mm 738 W/m2
12:27 70.5 °F /  21.4 °C 52.6 °F /  11.4 °C 30.01 in /  1016.1 hPa SW 10.0 mph /  16.1 km/h 19.0 mph /  30.6 km/h 53 % 0.00 in /  0 mm 742 W/m2
12:32 70.5 °F /  21.4 °C 52.6 °F /  11.4 °C 30.01 in /  1016.1 hPa SSW 11.0 mph /  17.7 km/h 23.0 mph /  37 km/h 53 % 0.00 in /  0 mm 751 W/m2
12:37 70.3 °F /  21.3 °C 52.4 °F /  11.3 °C 30.00 in /  1015.8 hPa SSW 13.0 mph /  20.9 km/h 23.0 mph /  37 km/h 53 % 0.00 in /  0 mm 758 W/m2
12:42 70.5 °F /  21.4 °C 52.0 °F /  11.1 °C 30.01 in /  1016.1 hPa SSW 14.0 mph /  22.5 km/h 22.0 mph /  35.4 km/h 52 % 0.00 in /  0 mm 756 W/m2
12:47 70.5 °F /  21.4 °C 52.0 °F /  11.1 °C 30.01 in /  1016.1 hPa SW 13.0 mph /  20.9 km/h 20.0 mph /  32.2 km/h 52 % 0.00 in /  0 mm 761 W/m2
12:48 70.5 °F /  21.4 °C 52.0 °F /  11.1 °C 30.00 in /  1015.8 hPa SW 13.0 mph /  20.9 km/h 20.0 mph /  32.2 km/h 52 % 0.00 in /  0 mm 761 W/m2
12:53 70.9 °F /  21.6 °C 50.8 °F /  10.4 °C 30.00 in /  1015.8 hPa SW 14.0 mph /  22.5 km/h 24.0 mph /  38.6 km/h 49 % 0.00 in /  0 mm 738 W/m2
12:58 70.9 °F /  21.6 °C 49.6 °F /  9.8 °C 30.01 in /  1016.1 hPa SW 16.0 mph /  25.7 km/h 26.0 mph /  41.8 km/h 47 % 0.00 in /  0 mm 722 W/m2
13:03 70.9 °F /  21.6 °C 49.6 °F /  9.8 °C 30.00 in /  1015.8 hPa SW 16.0 mph /  25.7 km/h 26.0 mph /  41.8 km/h 47 % 0.00 in /  0 mm 747 W/m2
13:08 70.9 °F /  21.6 °C 49.6 °F /  9.8 °C 30.00 in /  1015.8 hPa SW 16.0 mph /  25.7 km/h 25.0 mph /  40.2 km/h 47 % 0.00 in /  0 mm 737 W/m2
13:13 70.9 °F /  21.6 °C 50.2 °F /  10.1 °C 30.00 in /  1015.8 hPa SW 14.0 mph /  22.5 km/h 24.0 mph /  38.6 km/h 48 % 0.00 in /  0 mm 701 W/m2
13:18 71.1 °F /  21.7 °C 50.9 °F /  10.5 °C 30.00 in /  1015.8 hPa SW 13.0 mph /  20.9 km/h 24.0 mph /  38.6 km/h 49 % 0.00 in /  0 mm 680 W/m2
13:23 71.2 °F /  21.8 °C 51.1 °F /  10.6 °C 30.00 in /  1015.8 hPa SW 11.0 mph /  17.7 km/h 21.0 mph /  33.8 km/h 49 % 0.00 in /  0 mm 751 W/m2
13:28 71.6 °F /  22 °C 51.4 °F /  10.8 °C 30.00 in /  1015.8 hPa SW 10.0 mph /  16.1 km/h 18.0 mph /  29 km/h 49 % 0.00 in /  0 mm 742 W/m2
13:33 72.0 °F /  22.2 °C 50.0 °F /  10 °C 30.00 in /  1015.8 hPa SW 11.0 mph /  17.7 km/h 23.0 mph /  37 km/h 46 % 0.00 in /  0 mm 742 W/m2
13:38 71.8 °F /  22.1 °C 50.5 °F /  10.3 °C 29.99 in /  1015.5 hPa SW 12.0 mph /  19.3 km/h 23.0 mph /  37 km/h 47 % 0.00 in /  0 mm 671 W/m2
13:43 72.0 °F /  22.2 °C 50.6 °F /  10.3 °C 29.99 in /  1015.5 hPa SW 12.0 mph /  19.3 km/h 20.0 mph /  32.2 km/h 47 % 0.00 in /  0 mm 729 W/m2
13:48 72.0 °F /  22.2 °C 49.5 °F /  9.7 °C 29.99 in /  1015.5 hPa SW 13.0 mph /  20.9 km/h 21.0 mph /  33.8 km/h 45 % 0.00 in /  0 mm 733 W/m2
13:53 72.0 °F /  22.2 °C 49.5 °F /  9.7 °C 29.99 in /  1015.5 hPa SW 12.0 mph /  19.3 km/h 21.0 mph /  33.8 km/h 45 % 0.00 in /  0 mm 735 W/m2
13:58 72.3 °F /  22.4 °C 48.6 °F /  9.2 °C 29.99 in /  1015.5 hPa SW 11.0 mph /  17.7 km/h 18.0 mph /  29 km/h 43 % 0.00 in /  0 mm 737 W/m2
14:03 72.5 °F /  22.5 °C 49.3 °F /  9.6 °C 29.99 in /  1015.5 hPa WSW 11.0 mph /  17.7 km/h 18.0 mph /  29 km/h 44 % 0.00 in /  0 mm 728 W/m2
14:08 72.5 °F /  22.5 °C 48.7 °F /  9.3 °C 29.99 in /  1015.5 hPa SW 11.0 mph /  17.7 km/h 19.0 mph /  30.6 km/h 43 % 0.00 in /  0 mm 649 W/m2
14:13 72.7 °F /  22.6 °C 49.5 °F /  9.7 °C 29.99 in /  1015.5 hPa SW 11.0 mph /  17.7 km/h 19.0 mph /  30.6 km/h 44 % 0.00 in /  0 mm 633 W/m2
14:18 72.7 °F /  22.6 °C 48.9 °F /  9.4 °C 29.99 in /  1015.5 hPa WSW 12.0 mph /  19.3 km/h 20.0 mph /  32.2 km/h 43 % 0.00 in /  0 mm 737 W/m2
14:23 72.3 °F /  22.4 °C 49.2 °F /  9.6 °C 29.99 in /  1015.5 hPa WSW 13.0 mph /  20.9 km/h 26.0 mph /  41.8 km/h 44 % 0.00 in /  0 mm 661 W/m2
14:26 72.3 °F /  22.4 °C 48.6 °F /  9.2 °C 29.99 in /  1015.5 hPa WSW 14.0 mph /  22.5 km/h 26.0 mph /  41.8 km/h 43 % 0.00 in /  0 mm 740 W/m2
14:31 72.1 °F /  22.3 °C 49.6 °F /  9.8 °C 29.99 in /  1015.5 hPa WSW 13.0 mph /  20.9 km/h 23.0 mph /  37 km/h 45 % 0.00 in /  0 mm 649 W/m2
14:36 72.0 °F /  22.2 °C 50.0 °F /  10 °C 29.99 in /  1015.5 hPa SW 13.0 mph /  20.9 km/h 24.0 mph /  38.6 km/h 46 % 0.00 in /  0 mm 708 W/m2
14:41 72.0 °F /  22.2 °C 50.6 °F /  10.3 °C 29.99 in /  1015.5 hPa WSW 12.0 mph /  19.3 km/h 24.0 mph /  38.6 km/h 47 % 0.00 in /  0 mm 668 W/m2
14:46 72.1 °F /  22.3 °C 50.8 °F /  10.4 °C 29.98 in /  1015.1 hPa WSW 11.0 mph /  17.7 km/h 21.0 mph /  33.8 km/h 47 % 0.00 in /  0 mm 621 W/m2
14:51 72.0 °F /  22.2 °C 50.6 °F /  10.3 °C 29.98 in /  1015.1 hPa SW 11.0 mph /  17.7 km/h 21.0 mph /  33.8 km/h 47 % 0.00 in /  0 mm 694 W/m2
14:56 72.1 °F /  22.3 °C 50.2 °F /  10.1 °C 29.98 in /  1015.1 hPa SW 12.0 mph /  19.3 km/h 21.0 mph /  33.8 km/h 46 % 0.00 in /  0 mm 677 W/m2
15:01 72.1 °F /  22.3 °C 51.4 °F /  10.8 °C 29.98 in /  1015.1 hPa SW 11.0 mph /  17.7 km/h 20.0 mph /  32.2 km/h 48 % 0.00 in /  0 mm 680 W/m2
15:06 72.1 °F /  22.3 °C 51.4 °F /  10.8 °C 29.98 in /  1015.1 hPa WSW 9.0 mph /  14.5 km/h 15.0 mph /  24.1 km/h 48 % 0.00 in /  0 mm 578 W/m2
15:11 72.1 °F /  22.3 °C 51.4 °F /  10.8 °C 29.98 in /  1015.1 hPa WSW 11.0 mph /  17.7 km/h 21.0 mph /  33.8 km/h 48 % 0.00 in /  0 mm 650 W/m2
15:16 72.1 °F /  22.3 °C 50.8 °F /  10.4 °C 29.98 in /  1015.1 hPa West 13.0 mph /  20.9 km/h 22.0 mph /  35.4 km/h 47 % 0.00 in /  0 mm 628 W/m2
15:21 72.0 °F /  22.2 °C 50.6 °F /  10.3 °C 29.98 in /  1015.1 hPa West 13.0 mph /  20.9 km/h 22.0 mph /  35.4 km/h 47 % 0.00 in /  0 mm 452 W/m2
15:26 71.6 °F /  22 °C 50.9 °F /  10.5 °C 29.97 in /  1014.8 hPa WSW 12.0 mph /  19.3 km/h 21.0 mph /  33.8 km/h 48 % 0.00 in /  0 mm 548 W/m2
15:31 71.8 °F /  22.1 °C 51.0 °F /  10.6 °C 29.97 in /  1014.8 hPa WSW 13.0 mph /  20.9 km/h 22.0 mph /  35.4 km/h 48 % 0.00 in /  0 mm 624 W/m2
15:36 71.6 °F /  22 °C 50.9 °F /  10.5 °C 29.97 in /  1014.8 hPa WSW 13.0 mph /  20.9 km/h 22.0 mph /  35.4 km/h 48 % 0.00 in /  0 mm 640 W/m2
15:41 71.8 °F /  22.1 °C 51.6 °F /  10.9 °C 29.97 in /  1014.8 hPa West 11.0 mph /  17.7 km/h 21.0 mph /  33.8 km/h 49 % 0.00 in /  0 mm 636 W/m2
15:46 72.0 °F /  22.2 °C 52.3 °F /  11.3 °C 29.97 in /  1014.8 hPa West 10.0 mph /  16.1 km/h 19.0 mph /  30.6 km/h 50 % 0.00 in /  0 mm 619 W/m2
15:51 72.1 °F /  22.3 °C 51.4 °F /  10.8 °C 29.97 in /  1014.8 hPa West 11.0 mph /  17.7 km/h 20.0 mph /  32.2 km/h 48 % 0.00 in /  0 mm 380 W/m2
15:56 71.8 °F /  22.1 °C 51.0 °F /  10.6 °C 29.97 in /  1014.8 hPa West 12.0 mph /  19.3 km/h 20.0 mph /  32.2 km/h 48 % 0.00 in /  0 mm 193 W/m2
16:01 71.2 °F /  21.8 °C 52.2 °F /  11.2 °C 29.97 in /  1014.8 hPa West 13.0 mph /  20.9 km/h 21.0 mph /  33.8 km/h 51 % 0.00 in /  0 mm 338 W/m2
16:06 70.9 °F /  21.6 °C 52.4 °F /  11.3 °C 29.97 in /  1014.8 hPa West 13.0 mph /  20.9 km/h 21.0 mph /  33.8 km/h 52 % 0.00 in /  0 mm 346 W/m2
16:11 70.5 °F /  21.4 °C 52.6 °F /  11.4 °C 29.97 in /  1014.8 hPa West 12.0 mph /  19.3 km/h 20.0 mph /  32.2 km/h 53 % 0.00 in /  0 mm 373 W/m2
16:16 70.2 °F /  21.2 °C 52.2 °F /  11.2 °C 29.97 in /  1014.8 hPa West 13.0 mph /  20.9 km/h 23.0 mph /  37 km/h 53 % 0.00 in /  0 mm 276 W/m2
16:21 69.6 °F /  20.9 °C 53.2 °F /  11.8 °C 29.97 in /  1014.8 hPa West 11.0 mph /  17.7 km/h 23.0 mph /  37 km/h 56 % 0.00 in /  0 mm 227 W/m2
16:26 69.3 °F /  20.7 °C 53.4 °F /  11.9 °C 29.97 in /  1014.8 hPa WNW 11.0 mph /  17.7 km/h 20.0 mph /  32.2 km/h 57 % 0.00 in /  0 mm 564 W/m2
16:31 69.1 °F /  20.6 °C 54.1 °F /  12.3 °C 29.97 in /  1014.8 hPa WNW 13.0 mph /  20.9 km/h 20.0 mph /  32.2 km/h 59 % 0.00 in /  0 mm 512 W/m2
16:32 69.1 °F /  20.6 °C 54.1 °F /  12.3 °C 29.97 in /  1014.8 hPa WNW 13.0 mph /  20.9 km/h 21.0 mph /  33.8 km/h 59 % 0.00 in /  0 mm 536 W/m2
16:37 68.7 °F /  20.4 °C 53.8 °F /  12.1 °C 29.97 in /  1014.8 hPa WNW 12.0 mph /  19.3 km/h 21.0 mph /  33.8 km/h 59 % 0.00 in /  0 mm 422 W/m2
16:42 68.5 °F /  20.3 °C 53.2 °F /  11.8 °C 29.98 in /  1015.1 hPa WNW 11.0 mph /  17.7 km/h 21.0 mph /  33.8 km/h 58 % 0.00 in /  0 mm 371 W/m2
16:47 68.2 °F /  20.1 °C 53.8 °F /  12.1 °C 29.98 in /  1015.1 hPa WNW 11.0 mph /  17.7 km/h 19.0 mph /  30.6 km/h 60 % 0.00 in /  0 mm 462 W/m2
16:52 67.6 °F /  19.8 °C 52.8 °F /  11.6 °C 29.98 in /  1015.1 hPa WNW 12.0 mph /  19.3 km/h 22.0 mph /  35.4 km/h 59 % 0.00 in /  0 mm 429 W/m2
16:57 67.1 °F /  19.5 °C 52.7 °F /  11.5 °C 29.98 in /  1015.1 hPa WNW 13.0 mph /  20.9 km/h 22.0 mph /  35.4 km/h 60 % 0.00 in /  0 mm 445 W/m2
17:02 66.6 °F /  19.2 °C 52.7 °F /  11.5 °C 29.99 in /  1015.5 hPa WNW 13.0 mph /  20.9 km/h 22.0 mph /  35.4 km/h 61 % 0.00 in /  0 mm 432 W/m2
17:07 65.8 °F /  18.8 °C 52.5 °F /  11.4 °C 29.99 in /  1015.5 hPa WNW 13.0 mph /  20.9 km/h 22.0 mph /  35.4 km/h 62 % 0.00 in /  0 mm 338 W/m2
17:12 64.9 °F /  18.3 °C 52.0 °F /  11.1 °C 29.99 in /  1015.5 hPa WNW 14.0 mph /  22.5 km/h 22.0 mph /  35.4 km/h 63 % 0.00 in /  0 mm 343 W/m2
17:17 63.7 °F /  17.6 °C 51.3 °F /  10.7 °C 30.00 in /  1015.8 hPa WNW 15.0 mph /  24.1 km/h 25.0 mph /  40.2 km/h 64 % 0.00 in /  0 mm 295 W/m2
17:22 62.4 °F /  16.9 °C 50.9 °F /  10.5 °C 30.00 in /  1015.8 hPa West 15.0 mph /  24.1 km/h 25.0 mph /  40.2 km/h 66 % 0.00 in /  0 mm 274 W/m2
17:27 61.2 °F /  16.2 °C 50.1 °F /  10.1 °C 30.00 in /  1015.8 hPa WNW 16.0 mph /  25.7 km/h 28.0 mph /  45.1 km/h 67 % 0.00 in /  0 mm 281 W/m2
17:32 60.3 °F /  15.7 °C 49.7 °F /  9.8 °C 30.00 in /  1015.8 hPa WNW 17.0 mph /  27.4 km/h 28.0 mph /  45.1 km/h 68 % 0.00 in /  0 mm 216 W/m2
17:37 59.4 °F /  15.2 °C 49.2 °F /  9.6 °C 30.00 in /  1015.8 hPa West 17.0 mph /  27.4 km/h 29.0 mph /  46.7 km/h 69 % 0.00 in /  0 mm 244 W/m2
17:42 58.8 °F /  14.9 °C 49.1 °F /  9.5 °C 30.00 in /  1015.8 hPa WNW 16.0 mph /  25.7 km/h 29.0 mph /  46.7 km/h 70 % 0.00 in /  0 mm 162 W/m2
17:47 58.3 °F /  14.6 °C 48.9 °F /  9.4 °C 30.01 in /  1016.1 hPa WNW 16.0 mph /  25.7 km/h 29.0 mph /  46.7 km/h 71 % 0.00 in /  0 mm 158 W/m2
17:52 57.7 °F /  14.3 °C 48.8 °F /  9.3 °C 30.01 in /  1016.1 hPa WNW 19.0 mph /  30.6 km/h 29.0 mph /  46.7 km/h 72 % 0.00 in /  0 mm 193 W/m2
17:57 57.4 °F /  14.1 °C 48.4 °F /  9.1 °C 30.00 in /  1015.8 hPa West 19.0 mph /  30.6 km/h 30.0 mph /  48.3 km/h 72 % 0.00 in /  0 mm 209 W/m2
18:02 57.0 °F /  13.9 °C 48.8 °F /  9.3 °C 30.01 in /  1016.1 hPa West 18.0 mph /  29 km/h 32.0 mph /  51.5 km/h 74 % 0.00 in /  0 mm 155 W/m2
18:07 56.8 °F /  13.8 °C 48.6 °F /  9.2 °C 30.01 in /  1016.1 hPa West 18.0 mph /  29 km/h 32.0 mph /  51.5 km/h 74 % 0.00 in /  0 mm 197 W/m2
18:12 56.7 °F /  13.7 °C 48.5 °F /  9.2 °C 30.01 in /  1016.1 hPa West 18.0 mph /  29 km/h 28.0 mph /  45.1 km/h 74 % 0.00 in /  0 mm 151 W/m2
18:17 56.7 °F /  13.7 °C 48.5 °F /  9.2 °C 30.01 in /  1016.1 hPa West 17.0 mph /  27.4 km/h 27.0 mph /  43.5 km/h 74 % 0.00 in /  0 mm 137 W/m2
18:22 56.5 °F /  13.6 °C 47.9 °F /  8.8 °C 30.01 in /  1016.1 hPa West 17.0 mph /  27.4 km/h 27.0 mph /  43.5 km/h 73 % 0.00 in /  0 mm 125 W/m2
18:27 56.1 °F /  13.4 °C 47.2 °F /  8.4 °C 30.01 in /  1016.1 hPa West 18.0 mph /  29 km/h 26.0 mph /  41.8 km/h 72 % 0.00 in /  0 mm 109 W/m2
18:32 55.9 °F /  13.3 °C 47.0 °F /  8.3 °C 30.02 in /  1016.5 hPa West 18.0 mph /  29 km/h 26.0 mph /  41.8 km/h 72 % 0.00 in /  0 mm 97 W/m2
18:37 55.9 °F /  13.3 °C 47.0 °F /  8.3 °C 30.02 in /  1016.5 hPa West 16.0 mph /  25.7 km/h 26.0 mph /  41.8 km/h 72 % 0.00 in /  0 mm 86 W/m2
18:42 55.9 °F /  13.3 °C 47.0 °F /  8.3 °C 30.02 in /  1016.5 hPa West 14.0 mph /  22.5 km/h 28.0 mph /  45.1 km/h 72 % 0.00 in /  0 mm 79 W/m2
18:47 55.8 °F /  13.2 °C 46.1 °F /  7.8 °C 30.02 in /  1016.5 hPa WNW 16.0 mph /  25.7 km/h 28.0 mph /  45.1 km/h 70 % 0.00 in /  0 mm 65 W/m2
18:52 55.6 °F /  13.1 °C 45.9 °F /  7.7 °C 30.02 in /  1016.5 hPa WNW 17.0 mph /  27.4 km/h 28.0 mph /  45.1 km/h 70 % 0.00 in /  0 mm 62 W/m2
18:57 55.6 °F /  13.1 °C 45.6 °F /  7.6 °C 30.02 in /  1016.5 hPa WNW 17.0 mph /  27.4 km/h 29.0 mph /  46.7 km/h 69 % 0.00 in /  0 mm 54 W/m2
19:02 55.4 °F /  13 °C 45.4 °F /  7.4 °C 30.02 in /  1016.5 hPa WNW 16.0 mph /  25.7 km/h 29.0 mph /  46.7 km/h 69 % 0.00 in /  0 mm 53 W/m2
19:07 55.0 °F /  12.8 °C 44.7 °F /  7.1 °C 30.02 in /  1016.5 hPa WNW 16.0 mph /  25.7 km/h 28.0 mph /  45.1 km/h 68 % 0.00 in /  0 mm 46 W/m2
19:12 54.9 °F /  12.7 °C 44.9 °F /  7.2 °C 30.03 in /  1016.8 hPa WNW 17.0 mph /  27.4 km/h 28.0 mph /  45.1 km/h 69 % 0.00 in /  0 mm 40 W/m2
19:17 54.7 °F /  12.6 °C 44.7 °F /  7.1 °C 30.02 in /  1016.5 hPa WNW 18.0 mph /  29 km/h 27.0 mph /  43.5 km/h 69 % 0.00 in /  0 mm 35 W/m2
19:22 54.5 °F /  12.5 °C 44.5 °F /  6.9 °C 30.03 in /  1016.8 hPa WNW 17.0 mph /  27.4 km/h 27.0 mph /  43.5 km/h 69 % 0.00 in /  0 mm 30 W/m2
19:27 54.3 °F /  12.4 °C 44.7 °F /  7.1 °C 30.03 in /  1016.8 hPa WNW 16.0 mph /  25.7 km/h 27.0 mph /  43.5 km/h 70 % 0.00 in /  0 mm 33 W/m2
19:32 54.1 °F /  12.3 °C 44.9 °F /  7.2 °C 30.04 in /  1017.2 hPa WNW 14.0 mph /  22.5 km/h 27.0 mph /  43.5 km/h 71 % 0.00 in /  0 mm 39 W/m2
19:37 54.0 °F /  12.2 °C 44.8 °F /  7.1 °C 30.04 in /  1017.2 hPa WNW 13.0 mph /  20.9 km/h 23.0 mph /  37 km/h 71 % 0.00 in /  0 mm 25 W/m2
19:43 53.8 °F /  12.1 °C 45.0 °F /  7.2 °C 30.04 in /  1017.2 hPa WNW 13.0 mph /  20.9 km/h 21.0 mph /  33.8 km/h 72 % 0.00 in /  0 mm 18 W/m2
19:48 53.6 °F /  12 °C 44.8 °F /  7.1 °C 30.05 in /  1017.5 hPa WNW 14.0 mph /  22.5 km/h 21.0 mph /  33.8 km/h 72 % 0.00 in /  0 mm 16 W/m2
19:53 53.2 °F /  11.8 °C 44.4 °F /  6.9 °C 30.05 in /  1017.5 hPa WNW 15.0 mph /  24.1 km/h 22.0 mph /  35.4 km/h 72 % 0.00 in /  0 mm 12 W/m2
19:58 53.1 °F /  11.7 °C 44.6 °F /  7 °C 30.05 in /  1017.5 hPa WNW 15.0 mph /  24.1 km/h 23.0 mph /  37 km/h 73 % 0.00 in /  0 mm 11 W/m2
20:03 52.9 °F /  11.6 °C 44.5 °F /  6.9 °C 30.05 in /  1017.5 hPa WNW 16.0 mph /  25.7 km/h 27.0 mph /  43.5 km/h 73 % 0.00 in /  0 mm 7 W/m2
20:08 52.9 °F /  11.6 °C 44.8 °F /  7.1 °C 30.05 in /  1017.5 hPa WNW 17.0 mph /  27.4 km/h 27.0 mph /  43.5 km/h 74 % 0.00 in /  0 mm 5 W/m2
20:13 52.5 °F /  11.4 °C 44.5 °F /  6.9 °C 30.05 in /  1017.5 hPa WNW 16.0 mph /  25.7 km/h 26.0 mph /  41.8 km/h 74 % 0.00 in /  0 mm 0 W/m2
20:18 52.5 °F /  11.4 °C 44.5 °F /  6.9 °C 30.05 in /  1017.5 hPa West 15.0 mph /  24.1 km/h 26.0 mph /  41.8 km/h 74 % 0.00 in /  0 mm 0 W/m2
20:23 52.3 °F /  11.3 °C 44.3 °F /  6.8 °C 30.05 in /  1017.5 hPa West 14.0 mph /  22.5 km/h 24.0 mph /  38.6 km/h 74 % 0.00 in /  0 mm 0 W/m2
20:28 52.3 °F /  11.3 °C 44.6 °F /  7 °C 30.05 in /  1017.5 hPa WNW 14.0 mph /  22.5 km/h 23.0 mph /  37 km/h 75 % 0.00 in /  0 mm 0 W/m2
20:34 52.3 °F /  11.3 °C 44.6 °F /  7 °C 30.06 in /  1017.8 hPa WNW 15.0 mph /  24.1 km/h 25.0 mph /  40.2 km/h 75 % 0.00 in /  0 mm 0 W/m2
20:39 52.3 °F /  11.3 °C 44.6 °F /  7 °C 30.06 in /  1017.8 hPa WNW 14.0 mph /  22.5 km/h 25.0 mph /  40.2 km/h 75 % 0.00 in /  0 mm 0 W/m2
20:44 52.3 °F /  11.3 °C 44.6 °F /  7 °C 30.06 in /  1017.8 hPa WNW 12.0 mph /  19.3 km/h 24.0 mph /  38.6 km/h 75 % 0.00 in /  0 mm 0 W/m2
20:49 52.3 °F /  11.3 °C 44.6 °F /  7 °C 30.06 in /  1017.8 hPa WNW 11.0 mph /  17.7 km/h 19.0 mph /  30.6 km/h 75 % 0.00 in /  0 mm 0 W/m2
20:54 52.3 °F /  11.3 °C 44.6 °F /  7 °C 30.06 in /  1017.8 hPa WNW 10.0 mph /  16.1 km/h 19.0 mph /  30.6 km/h 75 % 0.00 in /  0 mm 0 W/m2
20:59 52.3 °F /  11.3 °C 44.6 °F /  7 °C 30.06 in /  1017.8 hPa WNW 9.0 mph /  14.5 km/h 15.0 mph /  24.1 km/h 75 % 0.00 in /  0 mm 0 W/m2
21:04 52.5 °F /  11.4 °C 44.8 °F /  7.1 °C 30.06 in /  1017.8 hPa WNW 10.0 mph /  16.1 km/h 16.0 mph /  25.7 km/h 75 % 0.00 in /  0 mm 0 W/m2
21:09 52.5 °F /  11.4 °C 44.8 °F /  7.1 °C 30.06 in /  1017.8 hPa WNW 9.0 mph /  14.5 km/h 16.0 mph /  25.7 km/h 75 % 0.00 in /  0 mm 0 W/m2
21:14 52.7 °F /  11.5 °C 45.0 °F /  7.2 °C 30.07 in /  1018.2 hPa WNW 8.0 mph /  12.9 km/h 15.0 mph /  24.1 km/h 75 % 0.00 in /  0 mm 0 W/m2
21:19 52.7 °F /  11.5 °C 45.0 °F /  7.2 °C 30.06 in /  1017.8 hPa WNW 9.0 mph /  14.5 km/h 15.0 mph /  24.1 km/h 75 % 0.00 in /  0 mm 0 W/m2
21:24 52.5 °F /  11.4 °C 44.8 °F /  7.1 °C 30.06 in /  1017.8 hPa WNW 9.0 mph /  14.5 km/h 18.0 mph /  29 km/h 75 % 0.00 in /  0 mm 0 W/m2
21:29 52.5 °F /  11.4 °C 44.8 °F /  7.1 °C 30.07 in /  1018.2 hPa WNW 8.0 mph /  12.9 km/h 18.0 mph /  29 km/h 75 % 0.00 in /  0 mm 0 W/m2
21:34 52.5 °F /  11.4 °C 44.8 °F /  7.1 °C 30.07 in /  1018.2 hPa WNW 7.0 mph /  11.3 km/h 12.0 mph /  19.3 km/h 75 % 0.00 in /  0 mm 0 W/m2
21:39 52.3 °F /  11.3 °C 44.6 °F /  7 °C 30.07 in /  1018.2 hPa West 8.0 mph /  12.9 km/h 16.0 mph /  25.7 km/h 75 % 0.00 in /  0 mm 0 W/m2
21:44 52.3 °F /  11.3 °C 44.6 °F /  7 °C 30.07 in /  1018.2 hPa West 9.0 mph /  14.5 km/h 16.0 mph /  25.7 km/h 75 % 0.00 in /  0 mm 0 W/m2
21:49 52.3 °F /  11.3 °C 45.0 °F /  7.2 °C 30.07 in /  1018.2 hPa West 9.0 mph /  14.5 km/h 20.0 mph /  32.2 km/h 76 % 0.00 in /  0 mm 0 W/m2
21:54 52.2 °F /  11.2 °C 44.8 °F /  7.1 °C 30.07 in /  1018.2 hPa West 9.0 mph /  14.5 km/h 20.0 mph /  32.2 km/h 76 % 0.00 in /  0 mm 0 W/m2
21:55 52.2 °F /  11.2 °C 44.8 °F /  7.1 °C 30.07 in /  1018.2 hPa West 9.0 mph /  14.5 km/h 20.0 mph /  32.2 km/h 76 % 0.00 in /  0 mm 0 W/m2
22:00 52.2 °F /  11.2 °C 44.8 °F /  7.1 °C 30.07 in /  1018.2 hPa West 11.0 mph /  17.7 km/h 20.0 mph /  32.2 km/h 76 % 0.00 in /  0 mm 0 W/m2
22:05 52.3 °F /  11.3 °C 45.0 °F /  7.2 °C 30.07 in /  1018.2 hPa WNW 12.0 mph /  19.3 km/h 20.0 mph /  32.2 km/h 76 % 0.00 in /  0 mm 0 W/m2
22:10 52.3 °F /  11.3 °C 45.0 °F /  7.2 °C 30.07 in /  1018.2 hPa WNW 13.0 mph /  20.9 km/h 20.0 mph /  32.2 km/h 76 % 0.00 in /  0 mm 0 W/m2
22:15 52.3 °F /  11.3 °C 45.0 °F /  7.2 °C 30.07 in /  1018.2 hPa WNW 13.0 mph /  20.9 km/h 21.0 mph /  33.8 km/h 76 % 0.00 in /  0 mm 0 W/m2
22:20 52.3 °F /  11.3 °C 45.3 °F /  7.4 °C 30.08 in /  1018.5 hPa WNW 12.0 mph /  19.3 km/h 21.0 mph /  33.8 km/h 77 % 0.00 in /  0 mm 0 W/m2
22:25 52.3 °F /  11.3 °C 45.3 °F /  7.4 °C 30.08 in /  1018.5 hPa WNW 10.0 mph /  16.1 km/h 20.0 mph /  32.2 km/h 77 % 0.00 in /  0 mm 0 W/m2
22:30 52.3 °F /  11.3 °C 45.3 °F /  7.4 °C 30.08 in /  1018.5 hPa WNW 10.0 mph /  16.1 km/h 20.0 mph /  32.2 km/h 77 % 0.00 in /  0 mm 0 W/m2
22:35 52.3 °F /  11.3 °C 45.3 °F /  7.4 °C 30.08 in /  1018.5 hPa WNW 11.0 mph /  17.7 km/h 22.0 mph /  35.4 km/h 77 % 0.00 in /  0 mm 0 W/m2
22:40 52.3 °F /  11.3 °C 45.7 °F /  7.6 °C 30.08 in /  1018.5 hPa WNW 11.0 mph /  17.7 km/h 22.0 mph /  35.4 km/h 78 % 0.00 in /  0 mm 0 W/m2
22:45 52.2 °F /  11.2 °C 45.5 °F /  7.5 °C 30.08 in /  1018.5 hPa WNW 9.0 mph /  14.5 km/h 19.0 mph /  30.6 km/h 78 % 0.00 in /  0 mm 0 W/m2
22:50 52.2 °F /  11.2 °C 45.8 °F /  7.7 °C 30.08 in /  1018.5 hPa WNW 9.0 mph /  14.5 km/h 23.0 mph /  37 km/h 79 % 0.00 in /  0 mm 0 W/m2
22:55 52.0 °F /  11.1 °C 45.7 °F /  7.6 °C 30.09 in /  1018.8 hPa WNW 10.0 mph /  16.1 km/h 23.0 mph /  37 km/h 79 % 0.00 in /  0 mm 0 W/m2
23:00 52.0 °F /  11.1 °C 45.7 °F /  7.6 °C 30.09 in /  1018.8 hPa WNW 12.0 mph /  19.3 km/h 28.0 mph /  45.1 km/h 79 % 0.00 in /  0 mm 0 W/m2
23:05 51.6 °F /  10.9 °C 45.0 °F /  7.2 °C 30.09 in /  1018.8 hPa WNW 15.0 mph /  24.1 km/h 28.0 mph /  45.1 km/h 78 % 0.00 in /  0 mm 0 W/m2
23:10 51.3 °F /  10.7 °C 44.3 °F /  6.8 °C 30.09 in /  1018.8 hPa WNW 15.0 mph /  24.1 km/h 28.0 mph /  45.1 km/h 77 % 0.00 in /  0 mm 0 W/m2
23:15 50.9 °F /  10.5 °C 44.3 °F /  6.8 °C 30.09 in /  1018.8 hPa WNW 13.0 mph /  20.9 km/h 26.0 mph /  41.8 km/h 78 % 0.00 in /  0 mm 0 W/m2
23:17 50.7 °F /  10.4 °C 44.1 °F /  6.7 °C 30.09 in /  1018.8 hPa WNW 12.0 mph /  19.3 km/h 26.0 mph /  41.8 km/h 78 % 0.00 in /  0 mm 0 W/m2
23:22 50.4 °F /  10.2 °C 43.4 °F /  6.3 °C 30.10 in /  1019.2 hPa WNW 11.0 mph /  17.7 km/h 22.0 mph /  35.4 km/h 77 % 0.00 in /  0 mm 0 W/m2
23:27 50.2 °F /  10.1 °C 43.2 °F /  6.2 °C 30.10 in /  1019.2 hPa WNW 11.0 mph /  17.7 km/h 22.0 mph /  35.4 km/h 77 % 0.00 in /  0 mm 0 W/m2
23:32 49.8 °F /  9.9 °C 42.9 °F /  6.1 °C 30.10 in /  1019.2 hPa WNW 10.0 mph /  16.1 km/h 20.0 mph /  32.2 km/h 77 % 0.00 in /  0 mm 0 W/m2
23:37 49.5 °F /  9.7 °C 42.9 °F /  6.1 °C 30.10 in /  1019.2 hPa WNW 10.0 mph /  16.1 km/h 20.0 mph /  32.2 km/h 78 % 0.00 in /  0 mm 0 W/m2
23:42 49.3 °F /  9.6 °C 42.7 °F /  5.9 °C 30.10 in /  1019.2 hPa NW 10.0 mph /  16.1 km/h 21.0 mph /  33.8 km/h 78 % 0.00 in /  0 mm 0 W/m2
23:47 48.9 °F /  9.4 °C 42.4 °F /  5.8 °C 30.10 in /  1019.2 hPa WNW 10.0 mph /  16.1 km/h 21.0 mph /  33.8 km/h 78 % 0.00 in /  0 mm 0 W/m2
23:52 48.7 °F /  9.3 °C 42.5 °F /  5.8 °C 30.11 in /  1019.5 hPa WNW 10.0 mph /  16.1 km/h 20.0 mph /  32.2 km/h 79 % 0.00 in /  0 mm 0 W/m2
23:57 48.6 °F /  9.2 °C 42.3 °F /  5.7 °C 30.11 in /  1019.5 hPa WNW 11.0 mph /  17.7 km/h 20.0 mph /  32.2 km/h 79 % 0.00 in /  0 mm 0 W/m2
Delerius-Weather
Compliments of Weather Underground - 2.25 mb

Data updates at regular intervals.